sensor_id;sensor_type;location;lat;lon;timestamp;temperature;humidity
22779;DHT22;11556;51.194;3.800;2024-03-08T00:00:19;5.60;99.90
22779;DHT22;11556;51.194;3.800;2024-03-08T00:02:45;5.60;99.90
22779;DHT22;11556;51.194;3.800;2024-03-08T00:05:11;5.50;99.90
22779;DHT22;11556;51.194;3.800;2024-03-08T00:07:38;5.50;99.90
22779;DHT22;11556;51.194;3.800;2024-03-08T00:10:08;5.50;99.90
22779;DHT22;11556;51.194;3.800;2024-03-08T00:12:44;5.50;99.90
22779;DHT22;11556;51.194;3.800;2024-03-08T00:15:15;5.50;99.90
22779;DHT22;11556;51.194;3.800;2024-03-08T00:17:41;5.50;99.90
22779;DHT22;11556;51.194;3.800;2024-03-08T00:20:07;5.40;99.90
22779;DHT22;11556;51.194;3.800;2024-03-08T00:22:37;5.40;99.90
22779;DHT22;11556;51.194;3.800;2024-03-08T00:25:03;5.40;99.90
22779;DHT22;11556;51.194;3.800;2024-03-08T00:27:29;5.40;99.90
22779;DHT22;11556;51.194;3.800;2024-03-08T00:29:59;5.40;99.90
22779;DHT22;11556;51.194;3.800;2024-03-08T00:32:24;5.40;99.90
22779;DHT22;11556;51.194;3.800;2024-03-08T00:34:50;5.30;99.90
22779;DHT22;11556;51.194;3.800;2024-03-08T00:37:22;5.30;99.90
22779;DHT22;11556;51.194;3.800;2024-03-08T00:39:49;5.30;99.90
22779;DHT22;11556;51.194;3.800;2024-03-08T00:42:18;5.30;99.90
22779;DHT22;11556;51.194;3.800;2024-03-08T00:44:44;5.30;99.90
22779;DHT22;11556;51.194;3.800;2024-03-08T00:47:10;5.30;99.90
22779;DHT22;11556;51.194;3.800;2024-03-08T00:49:36;5.30;99.90
22779;DHT22;11556;51.194;3.800;2024-03-08T00:52:04;5.20;99.90
22779;DHT22;11556;51.194;3.800;2024-03-08T00:54:33;5.30;99.90
22779;DHT22;11556;51.194;3.800;2024-03-08T00:56:59;5.20;99.90
22779;DHT22;11556;51.194;3.800;2024-03-08T00:59:31;5.20;99.90
22779;DHT22;11556;51.194;3.800;2024-03-08T01:02:00;5.20;99.90
22779;DHT22;11556;51.194;3.800;2024-03-08T01:04:26;5.20;99.90
22779;DHT22;11556;51.194;3.800;2024-03-08T01:06:55;5.10;99.90
22779;DHT22;11556;51.194;3.800;2024-03-08T01:09:22;5.10;99.90
22779;DHT22;11556;51.194;3.800;2024-03-08T01:11:48;5.10;99.90
22779;DHT22;11556;51.194;3.800;2024-03-08T01:14:14;5.10;99.90
22779;DHT22;11556;51.194;3.800;2024-03-08T01:16:40;5.10;99.90
22779;DHT22;11556;51.194;3.800;2024-03-08T01:19:06;5.00;99.90
22779;DHT22;11556;51.194;3.800;2024-03-08T01:21:32;5.00;99.90
22779;DHT22;11556;51.194;3.800;2024-03-08T01:23:57;5.00;99.90
22779;DHT22;11556;51.194;3.800;2024-03-08T01:26:23;5.00;99.90
22779;DHT22;11556;51.194;3.800;2024-03-08T01:28:49;5.00;99.90
22779;DHT22;11556;51.194;3.800;2024-03-08T01:31:15;5.00;99.90
22779;DHT22;11556;51.194;3.800;2024-03-08T01:33:41;4.90;99.90
22779;DHT22;11556;51.194;3.800;2024-03-08T01:36:07;4.90;99.90
22779;DHT22;11556;51.194;3.800;2024-03-08T01:38:33;4.90;99.90
22779;DHT22;11556;51.194;3.800;2024-03-08T01:41:01;4.90;99.90
22779;DHT22;11556;51.194;3.800;2024-03-08T01:43:28;4.90;99.90
22779;DHT22;11556;51.194;3.800;2024-03-08T01:46:01;4.80;99.90
22779;DHT22;11556;51.194;3.800;2024-03-08T01:48:30;4.80;99.90
22779;DHT22;11556;51.194;3.800;2024-03-08T01:50:58;4.80;99.90
22779;DHT22;11556;51.194;3.800;2024-03-08T01:53:27;4.80;99.90
22779;DHT22;11556;51.194;3.800;2024-03-08T01:55:56;4.70;99.90
22779;DHT22;11556;51.194;3.800;2024-03-08T01:58:23;4.80;99.90
22779;DHT22;11556;51.194;3.800;2024-03-08T02:00:49;4.70;99.90
22779;DHT22;11556;51.194;3.800;2024-03-08T02:03:16;4.70;99.90
22779;DHT22;11556;51.194;3.800;2024-03-08T02:05:42;4.70;99.90
22779;DHT22;11556;51.194;3.800;2024-03-08T02:08:09;4.60;99.90
22779;DHT22;11556;51.194;3.800;2024-03-08T02:10:45;4.60;99.90
22779;DHT22;11556;51.194;3.800;2024-03-08T02:13:11;4.60;99.90
22779;DHT22;11556;51.194;3.800;2024-03-08T02:16:00;4.60;99.90
22779;DHT22;11556;51.194;3.800;2024-03-08T02:18:26;4.60;99.90
22779;DHT22;11556;51.194;3.800;2024-03-08T02:20:53;4.50;99.90
22779;DHT22;11556;51.194;3.800;2024-03-08T02:23:19;4.50;99.90
22779;DHT22;11556;51.194;3.800;2024-03-08T02:25:46;4.50;99.90
22779;DHT22;11556;51.194;3.800;2024-03-08T02:28:12;4.50;99.90
22779;DHT22;11556;51.194;3.800;2024-03-08T02:30:39;4.50;99.90
22779;DHT22;11556;51.194;3.800;2024-03-08T02:33:05;4.50;99.90
22779;DHT22;11556;51.194;3.800;2024-03-08T02:35:32;4.40;99.90
22779;DHT22;11556;51.194;3.800;2024-03-08T02:37:57;4.40;99.90
22779;DHT22;11556;51.194;3.800;2024-03-08T02:40:23;4.50;99.90
22779;DHT22;11556;51.194;3.800;2024-03-08T02:42:49;4.40;99.90
22779;DHT22;11556;51.194;3.800;2024-03-08T02:45:15;4.40;99.90
22779;DHT22;11556;51.194;3.800;2024-03-08T02:47:40;4.40;99.90
22779;DHT22;11556;51.194;3.800;2024-03-08T02:50:07;4.30;99.90
22779;DHT22;11556;51.194;3.800;2024-03-08T02:52:35;4.30;99.90
22779;DHT22;11556;51.194;3.800;2024-03-08T02:55:02;4.30;99.90
22779;DHT22;11556;51.194;3.800;2024-03-08T02:57:28;4.20;99.90
22779;DHT22;11556;51.194;3.800;2024-03-08T02:59:54;4.20;99.90
22779;DHT22;11556;51.194;3.800;2024-03-08T03:02:19;4.20;99.90
22779;DHT22;11556;51.194;3.800;2024-03-08T03:04:45;4.20;99.90
22779;DHT22;11556;51.194;3.800;2024-03-08T03:07:11;4.20;99.90
22779;DHT22;11556;51.194;3.800;2024-03-08T03:09:37;4.20;99.90
22779;DHT22;11556;51.194;3.800;2024-03-08T03:12:02;4.20;99.90
22779;DHT22;11556;51.194;3.800;2024-03-08T03:14:28;4.10;99.90
22779;DHT22;11556;51.194;3.800;2024-03-08T03:16:54;4.10;99.90
22779;DHT22;11556;51.194;3.800;2024-03-08T03:19:20;4.20;99.90
22779;DHT22;11556;51.194;3.800;2024-03-08T03:21:46;4.10;99.90
22779;DHT22;11556;51.194;3.800;2024-03-08T03:24:12;4.10;99.90
22779;DHT22;11556;51.194;3.800;2024-03-08T03:26:42;4.10;99.90
22779;DHT22;11556;51.194;3.800;2024-03-08T03:29:09;4.10;99.90
22779;DHT22;11556;51.194;3.800;2024-03-08T03:31:36;4.10;99.90
22779;DHT22;11556;51.194;3.800;2024-03-08T03:34:03;4.10;99.90
22779;DHT22;11556;51.194;3.800;2024-03-08T03:36:30;4.10;99.90
22779;DHT22;11556;51.194;3.800;2024-03-08T03:38:56;4.00;99.90
22779;DHT22;11556;51.194;3.800;2024-03-08T03:41:41;4.10;99.90
22779;DHT22;11556;51.194;3.800;2024-03-08T03:44:07;4.00;99.90
22779;DHT22;11556;51.194;3.800;2024-03-08T03:46:33;4.00;99.90
22779;DHT22;11556;51.194;3.800;2024-03-08T03:48:59;4.00;99.90
22779;DHT22;11556;51.194;3.800;2024-03-08T03:51:25;4.00;99.90
22779;DHT22;11556;51.194;3.800;2024-03-08T03:53:51;4.00;99.90
22779;DHT22;11556;51.194;3.800;2024-03-08T03:56:18;3.90;99.90
22779;DHT22;11556;51.194;3.800;2024-03-08T03:58:44;4.00;99.90
22779;DHT22;11556;51.194;3.800;2024-03-08T04:01:10;4.00;99.90
22779;DHT22;11556;51.194;3.800;2024-03-08T04:03:35;3.90;99.90
22779;DHT22;11556;51.194;3.800;2024-03-08T04:06:03;3.90;99.90
22779;DHT22;11556;51.194;3.800;2024-03-08T04:08:30;3.90;99.90
22779;DHT22;11556;51.194;3.800;2024-03-08T04:10:56;3.90;99.90
22779;DHT22;11556;51.194;3.800;2024-03-08T04:13:23;3.90;99.90
22779;DHT22;11556;51.194;3.800;2024-03-08T04:15:49;3.90;99.90
22779;DHT22;11556;51.194;3.800;2024-03-08T04:18:14;3.90;99.90
22779;DHT22;11556;51.194;3.800;2024-03-08T04:20:40;3.90;99.90
22779;DHT22;11556;51.194;3.800;2024-03-08T04:23:06;3.90;99.90
22779;DHT22;11556;51.194;3.800;2024-03-08T04:25:32;3.80;99.90
22779;DHT22;11556;51.194;3.800;2024-03-08T04:27:57;3.80;99.90
22779;DHT22;11556;51.194;3.800;2024-03-08T04:30:23;3.80;99.90
22779;DHT22;11556;51.194;3.800;2024-03-08T04:32:50;3.80;99.90
22779;DHT22;11556;51.194;3.800;2024-03-08T04:35:16;3.80;99.90
22779;DHT22;11556;51.194;3.800;2024-03-08T04:37:41;3.80;99.90
22779;DHT22;11556;51.194;3.800;2024-03-08T04:40:07;3.70;99.90
22779;DHT22;11556;51.194;3.800;2024-03-08T04:42:33;3.70;99.90
22779;DHT22;11556;51.194;3.800;2024-03-08T04:44:59;3.70;99.90
22779;DHT22;11556;51.194;3.800;2024-03-08T04:47:25;3.70;99.90
22779;DHT22;11556;51.194;3.800;2024-03-08T04:49:51;3.60;99.90
22779;DHT22;11556;51.194;3.800;2024-03-08T04:52:17;3.60;99.90
22779;DHT22;11556;51.194;3.800;2024-03-08T04:54:43;3.60;99.90
22779;DHT22;11556;51.194;3.800;2024-03-08T04:57:10;3.70;99.90
22779;DHT22;11556;51.194;3.800;2024-03-08T04:59:36;3.60;99.90
22779;DHT22;11556;51.194;3.800;2024-03-08T05:02:02;3.60;99.90
22779;DHT22;11556;51.194;3.800;2024-03-08T05:04:27;3.60;99.90
22779;DHT22;11556;51.194;3.800;2024-03-08T05:06:54;3.60;99.90
22779;DHT22;11556;51.194;3.800;2024-03-08T05:09:20;3.60;99.90
22779;DHT22;11556;51.194;3.800;2024-03-08T05:11:46;3.60;99.90
22779;DHT22;11556;51.194;3.800;2024-03-08T05:14:13;3.60;99.90
22779;DHT22;11556;51.194;3.800;2024-03-08T05:16:45;3.60;99.90
22779;DHT22;11556;51.194;3.800;2024-03-08T05:19:14;3.60;99.90
22779;DHT22;11556;51.194;3.800;2024-03-08T05:21:45;3.50;99.90
22779;DHT22;11556;51.194;3.800;2024-03-08T05:24:12;3.50;99.90
22779;DHT22;11556;51.194;3.800;2024-03-08T05:26:39;3.40;99.90
22779;DHT22;11556;51.194;3.800;2024-03-08T05:29:04;3.40;99.90
22779;DHT22;11556;51.194;3.800;2024-03-08T05:31:38;3.40;99.90
22779;DHT22;11556;51.194;3.800;2024-03-08T05:34:08;3.40;99.90
22779;DHT22;11556;51.194;3.800;2024-03-08T05:36:35;3.40;99.90
22779;DHT22;11556;51.194;3.800;2024-03-08T05:39:01;3.40;99.90
22779;DHT22;11556;51.194;3.800;2024-03-08T05:41:26;3.40;99.90
22779;DHT22;11556;51.194;3.800;2024-03-08T05:43:52;3.30;99.90
22779;DHT22;11556;51.194;3.800;2024-03-08T05:46:19;3.30;99.90
22779;DHT22;11556;51.194;3.800;2024-03-08T05:48:45;3.30;99.90
22779;DHT22;11556;51.194;3.800;2024-03-08T05:51:10;3.30;99.90
22779;DHT22;11556;51.194;3.800;2024-03-08T05:53:37;3.30;99.90
22779;DHT22;11556;51.194;3.800;2024-03-08T05:56:03;3.30;99.90
22779;DHT22;11556;51.194;3.800;2024-03-08T05:58:29;3.30;99.90
22779;DHT22;11556;51.194;3.800;2024-03-08T06:00:57;3.30;99.90
22779;DHT22;11556;51.194;3.800;2024-03-08T06:03:23;3.30;99.90
22779;DHT22;11556;51.194;3.800;2024-03-08T06:05:49;3.20;99.90
22779;DHT22;11556;51.194;3.800;2024-03-08T06:08:15;3.30;99.90
22779;DHT22;11556;51.194;3.800;2024-03-08T06:10:41;3.20;99.90
22779;DHT22;11556;51.194;3.800;2024-03-08T06:13:06;3.20;99.90
22779;DHT22;11556;51.194;3.800;2024-03-08T06:15:32;3.20;99.90
22779;DHT22;11556;51.194;3.800;2024-03-08T06:17:58;3.20;99.90
22779;DHT22;11556;51.194;3.800;2024-03-08T06:20:23;3.20;99.90
22779;DHT22;11556;51.194;3.800;2024-03-08T06:22:52;3.20;99.90
22779;DHT22;11556;51.194;3.800;2024-03-08T06:25:17;3.20;99.90
22779;DHT22;11556;51.194;3.800;2024-03-08T06:27:43;3.20;99.90
22779;DHT22;11556;51.194;3.800;2024-03-08T06:30:11;3.20;99.90
22779;DHT22;11556;51.194;3.800;2024-03-08T06:32:37;3.20;99.90
22779;DHT22;11556;51.194;3.800;2024-03-08T06:35:06;3.20;99.90
22779;DHT22;11556;51.194;3.800;2024-03-08T06:37:33;3.20;99.90
22779;DHT22;11556;51.194;3.800;2024-03-08T06:39:59;3.20;99.90
22779;DHT22;11556;51.194;3.800;2024-03-08T06:42:26;3.30;99.90
22779;DHT22;11556;51.194;3.800;2024-03-08T06:44:53;3.30;99.90
22779;DHT22;11556;51.194;3.800;2024-03-08T06:47:21;3.30;99.90
22779;DHT22;11556;51.194;3.800;2024-03-08T06:49:46;3.50;99.90
22779;DHT22;11556;51.194;3.800;2024-03-08T06:52:12;3.50;99.90
22779;DHT22;11556;51.194;3.800;2024-03-08T06:54:38;3.60;99.90
22779;DHT22;11556;51.194;3.800;2024-03-08T06:57:04;3.70;99.90
22779;DHT22;11556;51.194;3.800;2024-03-08T06:59:31;3.80;99.90
22779;DHT22;11556;51.194;3.800;2024-03-08T07:01:56;3.90;99.90
22779;DHT22;11556;51.194;3.800;2024-03-08T07:04:22;4.00;99.90
22779;DHT22;11556;51.194;3.800;2024-03-08T07:06:52;4.00;99.90
22779;DHT22;11556;51.194;3.800;2024-03-08T07:09:17;4.00;99.90
22779;DHT22;11556;51.194;3.800;2024-03-08T07:11:43;4.10;99.90
22779;DHT22;11556;51.194;3.800;2024-03-08T07:14:09;4.10;99.90
22779;DHT22;11556;51.194;3.800;2024-03-08T07:16:35;4.30;99.90
22779;DHT22;11556;51.194;3.800;2024-03-08T07:19:05;4.40;99.90
22779;DHT22;11556;51.194;3.800;2024-03-08T07:21:31;4.60;99.90
22779;DHT22;11556;51.194;3.800;2024-03-08T07:23:57;4.70;99.90
22779;DHT22;11556;51.194;3.800;2024-03-08T07:26:25;5.00;99.90
22779;DHT22;11556;51.194;3.800;2024-03-08T07:28:51;5.10;99.90
22779;DHT22;11556;51.194;3.800;2024-03-08T07:31:17;5.10;99.90
22779;DHT22;11556;51.194;3.800;2024-03-08T07:33:52;5.20;99.90
22779;DHT22;11556;51.194;3.800;2024-03-08T07:36:21;5.50;99.90
22779;DHT22;11556;51.194;3.800;2024-03-08T07:38:47;5.50;99.90
22779;DHT22;11556;51.194;3.800;2024-03-08T07:41:14;5.70;99.90
22779;DHT22;11556;51.194;3.800;2024-03-08T07:43:40;5.90;99.90
22779;DHT22;11556;51.194;3.800;2024-03-08T07:46:06;6.00;99.90
22779;DHT22;11556;51.194;3.800;2024-03-08T07:48:31;5.90;99.90
22779;DHT22;11556;51.194;3.800;2024-03-08T07:50:57;5.80;99.90
22779;DHT22;11556;51.194;3.800;2024-03-08T07:53:23;6.00;99.90
22779;DHT22;11556;51.194;3.800;2024-03-08T07:55:52;6.00;99.90
22779;DHT22;11556;51.194;3.800;2024-03-08T07:58:18;6.10;99.90
22779;DHT22;11556;51.194;3.800;2024-03-08T08:00:44;6.00;99.90
22779;DHT22;11556;51.194;3.800;2024-03-08T08:03:09;6.10;99.90
22779;DHT22;11556;51.194;3.800;2024-03-08T08:05:35;6.30;99.90
22779;DHT22;11556;51.194;3.800;2024-03-08T08:08:03;6.50;99.90
22779;DHT22;11556;51.194;3.800;2024-03-08T08:10:32;6.50;99.90
22779;DHT22;11556;51.194;3.800;2024-03-08T08:12:58;6.50;99.90
22779;DHT22;11556;51.194;3.800;2024-03-08T08:15:24;6.50;99.90
22779;DHT22;11556;51.194;3.800;2024-03-08T08:17:50;6.50;99.90
22779;DHT22;11556;51.194;3.800;2024-03-08T08:20:17;6.60;99.90
22779;DHT22;11556;51.194;3.800;2024-03-08T08:22:43;6.70;99.90
22779;DHT22;11556;51.194;3.800;2024-03-08T08:25:10;7.00;99.90
22779;DHT22;11556;51.194;3.800;2024-03-08T08:27:39;7.20;99.90
22779;DHT22;11556;51.194;3.800;2024-03-08T08:30:05;7.60;99.90
22779;DHT22;11556;51.194;3.800;2024-03-08T08:32:34;7.60;99.90
22779;DHT22;11556;51.194;3.800;2024-03-08T08:35:01;7.90;99.90
22779;DHT22;11556;51.194;3.800;2024-03-08T08:37:27;7.90;99.90
22779;DHT22;11556;51.194;3.800;2024-03-08T08:39:54;8.00;99.90
22779;DHT22;11556;51.194;3.800;2024-03-08T08:42:19;7.80;99.90
22779;DHT22;11556;51.194;3.800;2024-03-08T08:44:45;7.50;99.90
22779;DHT22;11556;51.194;3.800;2024-03-08T08:47:11;7.40;99.90
22779;DHT22;11556;51.194;3.800;2024-03-08T08:49:38;7.60;99.90
22779;DHT22;11556;51.194;3.800;2024-03-08T08:52:04;7.80;99.90
22779;DHT22;11556;51.194;3.800;2024-03-08T08:54:29;7.90;99.90
22779;DHT22;11556;51.194;3.800;2024-03-08T08:56:56;8.10;99.90
22779;DHT22;11556;51.194;3.800;2024-03-08T08:59:22;8.00;99.90
22779;DHT22;11556;51.194;3.800;2024-03-08T09:01:50;7.80;99.90
22779;DHT22;11556;51.194;3.800;2024-03-08T09:04:19;8.00;99.90
22779;DHT22;11556;51.194;3.800;2024-03-08T09:06:44;8.00;99.90
22779;DHT22;11556;51.194;3.800;2024-03-08T09:09:10;8.20;99.90
22779;DHT22;11556;51.194;3.800;2024-03-08T09:11:39;8.40;99.90
22779;DHT22;11556;51.194;3.800;2024-03-08T09:14:07;8.30;99.90
22779;DHT22;11556;51.194;3.800;2024-03-08T09:16:34;8.10;99.90
22779;DHT22;11556;51.194;3.800;2024-03-08T09:18:59;8.30;99.90
22779;DHT22;11556;51.194;3.800;2024-03-08T09:21:25;8.20;99.90
22779;DHT22;11556;51.194;3.800;2024-03-08T09:23:52;8.40;99.90
22779;DHT22;11556;51.194;3.800;2024-03-08T09:26:19;8.50;99.90
22779;DHT22;11556;51.194;3.800;2024-03-08T09:28:44;8.40;99.90
22779;DHT22;11556;51.194;3.800;2024-03-08T09:31:11;8.40;99.90
22779;DHT22;11556;51.194;3.800;2024-03-08T09:33:37;8.50;99.90
22779;DHT22;11556;51.194;3.800;2024-03-08T09:36:05;8.50;99.90
22779;DHT22;11556;51.194;3.800;2024-03-08T09:38:33;8.50;99.90
22779;DHT22;11556;51.194;3.800;2024-03-08T09:41:00;8.50;99.90
22779;DHT22;11556;51.194;3.800;2024-03-08T09:43:30;8.70;99.90
22779;DHT22;11556;51.194;3.800;2024-03-08T09:45:58;8.40;99.90
22779;DHT22;11556;51.194;3.800;2024-03-08T09:48:25;8.70;99.90
22779;DHT22;11556;51.194;3.800;2024-03-08T09:50:51;8.80;99.90
22779;DHT22;11556;51.194;3.800;2024-03-08T09:53:17;9.00;99.90
22779;DHT22;11556;51.194;3.800;2024-03-08T09:55:43;9.20;99.90
22779;DHT22;11556;51.194;3.800;2024-03-08T09:58:12;9.50;99.90
22779;DHT22;11556;51.194;3.800;2024-03-08T10:01:07;9.70;99.90
22779;DHT22;11556;51.194;3.800;2024-03-08T10:03:32;9.90;99.90
22779;DHT22;11556;51.194;3.800;2024-03-08T10:05:58;9.80;99.90
22779;DHT22;11556;51.194;3.800;2024-03-08T10:08:27;10.20;99.90
22779;DHT22;11556;51.194;3.800;2024-03-08T10:10:56;10.70;99.90
22779;DHT22;11556;51.194;3.800;2024-03-08T10:13:26;10.40;99.90
22779;DHT22;11556;51.194;3.800;2024-03-08T10:15:55;9.90;99.90
22779;DHT22;11556;51.194;3.800;2024-03-08T10:18:21;10.00;99.90
22779;DHT22;11556;51.194;3.800;2024-03-08T10:21:05;10.50;99.90
22779;DHT22;11556;51.194;3.800;2024-03-08T10:23:33;11.40;99.90
22779;DHT22;11556;51.194;3.800;2024-03-08T10:26:09;10.70;99.90
22779;DHT22;11556;51.194;3.800;2024-03-08T10:28:35;10.50;99.90
22779;DHT22;11556;51.194;3.800;2024-03-08T10:31:01;10.20;99.90
22779;DHT22;11556;51.194;3.800;2024-03-08T10:33:26;9.90;99.90
22779;DHT22;11556;51.194;3.800;2024-03-08T10:35:53;10.00;99.90
22779;DHT22;11556;51.194;3.800;2024-03-08T10:38:23;10.10;99.90
22779;DHT22;11556;51.194;3.800;2024-03-08T10:40:49;10.20;99.90
22779;DHT22;11556;51.194;3.800;2024-03-08T10:43:24;10.20;99.90
22779;DHT22;11556;51.194;3.800;2024-03-08T10:46:33;10.20;99.90
22779;DHT22;11556;51.194;3.800;2024-03-08T10:49:04;10.90;99.90
22779;DHT22;11556;51.194;3.800;2024-03-08T10:51:33;11.40;99.90
22779;DHT22;11556;51.194;3.800;2024-03-08T10:53:59;11.90;99.90
22779;DHT22;11556;51.194;3.800;2024-03-08T10:56:25;11.90;99.90
22779;DHT22;11556;51.194;3.800;2024-03-08T10:58:54;12.10;99.90
22779;DHT22;11556;51.194;3.800;2024-03-08T11:01:20;11.80;99.90
22779;DHT22;11556;51.194;3.800;2024-03-08T11:03:46;11.40;99.90
22779;DHT22;11556;51.194;3.800;2024-03-08T11:09:01;11.00;99.90
22779;DHT22;11556;51.194;3.800;2024-03-08T11:11:29;10.90;99.90
22779;DHT22;11556;51.194;3.800;2024-03-08T11:13:56;11.30;99.90
22779;DHT22;11556;51.194;3.800;2024-03-08T11:18:58;12.00;99.90
22779;DHT22;11556;51.194;3.800;2024-03-08T11:21:30;11.80;99.90
22779;DHT22;11556;51.194;3.800;2024-03-08T11:24:12;11.50;99.90
22779;DHT22;11556;51.194;3.800;2024-03-08T11:26:39;12.00;99.90
22779;DHT22;11556;51.194;3.800;2024-03-08T11:34:33;12.00;99.90
22779;DHT22;11556;51.194;3.800;2024-03-08T11:36:59;12.70;99.90
22779;DHT22;11556;51.194;3.800;2024-03-08T11:39:26;12.50;99.90
22779;DHT22;11556;51.194;3.800;2024-03-08T11:41:52;12.00;99.90
22779;DHT22;11556;51.194;3.800;2024-03-08T11:44:17;11.90;99.90
22779;DHT22;11556;51.194;3.800;2024-03-08T11:46:43;12.10;99.90
22779;DHT22;11556;51.194;3.800;2024-03-08T11:49:14;11.90;99.90
22779;DHT22;11556;51.194;3.800;2024-03-08T11:51:40;12.10;99.90
22779;DHT22;11556;51.194;3.800;2024-03-08T11:54:10;12.40;99.90
22779;DHT22;11556;51.194;3.800;2024-03-08T11:56:37;12.20;99.90
22779;DHT22;11556;51.194;3.800;2024-03-08T11:59:03;12.00;99.90
22779;DHT22;11556;51.194;3.800;2024-03-08T12:01:28;11.80;99.90
22779;DHT22;11556;51.194;3.800;2024-03-08T12:03:55;11.70;99.90
22779;DHT22;11556;51.194;3.800;2024-03-08T12:06:24;11.50;99.90
22779;DHT22;11556;51.194;3.800;2024-03-08T12:08:50;11.60;99.90
22779;DHT22;11556;51.194;3.800;2024-03-08T12:11:19;11.80;99.90
22779;DHT22;11556;51.194;3.800;2024-03-08T12:13:49;12.00;99.90
22779;DHT22;11556;51.194;3.800;2024-03-08T12:16:17;12.20;99.90
22779;DHT22;11556;51.194;3.800;2024-03-08T12:18:51;12.40;99.90
22779;DHT22;11556;51.194;3.800;2024-03-08T12:21:17;12.30;99.90
22779;DHT22;11556;51.194;3.800;2024-03-08T12:23:46;12.00;99.90
22779;DHT22;11556;51.194;3.800;2024-03-08T12:26:18;12.10;99.90
22779;DHT22;11556;51.194;3.800;2024-03-08T12:28:48;12.50;99.90
22779;DHT22;11556;51.194;3.800;2024-03-08T12:31:16;12.40;99.90
22779;DHT22;11556;51.194;3.800;2024-03-08T12:33:55;13.00;99.60
22779;DHT22;11556;51.194;3.800;2024-03-08T12:36:24;12.80;99.90
22779;DHT22;11556;51.194;3.800;2024-03-08T12:38:51;12.40;99.90
22779;DHT22;11556;51.194;3.800;2024-03-08T12:41:20;12.90;99.90
22779;DHT22;11556;51.194;3.800;2024-03-08T12:43:47;12.90;99.60
22779;DHT22;11556;51.194;3.800;2024-03-08T12:46:16;13.10;99.30
22779;DHT22;11556;51.194;3.800;2024-03-08T12:48:43;12.90;99.90
22779;DHT22;11556;51.194;3.800;2024-03-08T12:51:16;13.20;98.60
22779;DHT22;11556;51.194;3.800;2024-03-08T12:56:20;12.70;98.80
22779;DHT22;11556;51.194;3.800;2024-03-08T12:58:53;12.80;99.70
22779;DHT22;11556;51.194;3.800;2024-03-08T13:01:19;13.20;98.00
22779;DHT22;11556;51.194;3.800;2024-03-08T13:03:45;13.50;98.20
22779;DHT22;11556;51.194;3.800;2024-03-08T13:06:11;12.70;98.90
22779;DHT22;11556;51.194;3.800;2024-03-08T13:08:37;12.50;99.30
22779;DHT22;11556;51.194;3.800;2024-03-08T13:11:05;12.30;99.50
22779;DHT22;11556;51.194;3.800;2024-03-08T13:13:32;12.20;99.90
22779;DHT22;11556;51.194;3.800;2024-03-08T13:16:01;12.50;99.90
22779;DHT22;11556;51.194;3.800;2024-03-08T13:18:27;12.60;99.90
22779;DHT22;11556;51.194;3.800;2024-03-08T13:20:53;12.80;99.00
22779;DHT22;11556;51.194;3.800;2024-03-08T13:23:19;12.60;99.60
22779;DHT22;11556;51.194;3.800;2024-03-08T13:25:45;12.50;99.90
22779;DHT22;11556;51.194;3.800;2024-03-08T13:28:13;12.80;99.90
22779;DHT22;11556;51.194;3.800;2024-03-08T13:30:39;13.00;99.50
22779;DHT22;11556;51.194;3.800;2024-03-08T13:33:04;13.10;97.80
22779;DHT22;11556;51.194;3.800;2024-03-08T13:35:31;12.60;99.30
22779;DHT22;11556;51.194;3.800;2024-03-08T13:37:57;12.80;99.90
22779;DHT22;11556;51.194;3.800;2024-03-08T13:40:23;12.60;99.50
22779;DHT22;11556;51.194;3.800;2024-03-08T13:42:49;12.70;99.20
22779;DHT22;11556;51.194;3.800;2024-03-08T13:45:15;12.60;99.90
22779;DHT22;11556;51.194;3.800;2024-03-08T13:47:48;12.70;99.10
22779;DHT22;11556;51.194;3.800;2024-03-08T13:50:15;12.80;99.70
22779;DHT22;11556;51.194;3.800;2024-03-08T13:52:47;12.80;99.60
22779;DHT22;11556;51.194;3.800;2024-03-08T13:55:14;12.60;99.40
22779;DHT22;11556;51.194;3.800;2024-03-08T13:57:40;12.80;99.90
22779;DHT22;11556;51.194;3.800;2024-03-08T14:00:06;12.70;99.80
22779;DHT22;11556;51.194;3.800;2024-03-08T14:02:32;12.60;99.90
22779;DHT22;11556;51.194;3.800;2024-03-08T14:04:59;12.60;99.90
22779;DHT22;11556;51.194;3.800;2024-03-08T14:07:27;12.70;99.90
22779;DHT22;11556;51.194;3.800;2024-03-08T14:09:54;12.70;99.90
22779;DHT22;11556;51.194;3.800;2024-03-08T14:12:20;12.90;99.40
22779;DHT22;11556;51.194;3.800;2024-03-08T14:14:45;12.90;99.90
22779;DHT22;11556;51.194;3.800;2024-03-08T14:17:11;12.90;99.10
22779;DHT22;11556;51.194;3.800;2024-03-08T14:19:42;13.00;99.20
22779;DHT22;11556;51.194;3.800;2024-03-08T14:22:08;13.20;99.20
22779;DHT22;11556;51.194;3.800;2024-03-08T14:24:37;13.40;98.90
22779;DHT22;11556;51.194;3.800;2024-03-08T14:27:05;13.10;98.50
22779;DHT22;11556;51.194;3.800;2024-03-08T14:29:34;12.80;98.90
22779;DHT22;11556;51.194;3.800;2024-03-08T14:31:59;12.70;99.50
22779;DHT22;11556;51.194;3.800;2024-03-08T14:34:26;13.00;99.90
22779;DHT22;11556;51.194;3.800;2024-03-08T14:36:53;13.10;99.00
22779;DHT22;11556;51.194;3.800;2024-03-08T14:39:19;12.80;99.30
22779;DHT22;11556;51.194;3.800;2024-03-08T14:41:47;12.80;99.90
22779;DHT22;11556;51.194;3.800;2024-03-08T14:44:14;12.70;99.90
22779;DHT22;11556;51.194;3.800;2024-03-08T14:46:40;12.50;99.90
22779;DHT22;11556;51.194;3.800;2024-03-08T14:49:07;12.50;99.90
22779;DHT22;11556;51.194;3.800;2024-03-08T14:51:33;12.60;99.90
22779;DHT22;11556;51.194;3.800;2024-03-08T14:54:00;12.70;99.90
22779;DHT22;11556;51.194;3.800;2024-03-08T14:56:26;12.50;99.90
22779;DHT22;11556;51.194;3.800;2024-03-08T14:58:52;12.50;99.90
22779;DHT22;11556;51.194;3.800;2024-03-08T15:01:19;12.50;99.90
22779;DHT22;11556;51.194;3.800;2024-03-08T15:03:50;12.70;99.90
22779;DHT22;11556;51.194;3.800;2024-03-08T15:06:16;13.00;99.90
22779;DHT22;11556;51.194;3.800;2024-03-08T15:08:47;13.20;99.90
22779;DHT22;11556;51.194;3.800;2024-03-08T15:11:13;13.40;99.00
22779;DHT22;11556;51.194;3.800;2024-03-08T15:13:48;13.20;99.90
22779;DHT22;11556;51.194;3.800;2024-03-08T15:16:17;12.80;99.90
22779;DHT22;11556;51.194;3.800;2024-03-08T15:18:44;12.70;99.90
22779;DHT22;11556;51.194;3.800;2024-03-08T15:21:14;12.90;99.90
22779;DHT22;11556;51.194;3.800;2024-03-08T15:23:46;12.90;99.90
22779;DHT22;11556;51.194;3.800;2024-03-08T15:26:19;12.80;99.90
22779;DHT22;11556;51.194;3.800;2024-03-08T15:28:45;12.80;99.90
22779;DHT22;11556;51.194;3.800;2024-03-08T15:31:12;12.70;99.90
22779;DHT22;11556;51.194;3.800;2024-03-08T15:33:41;12.50;99.90
22779;DHT22;11556;51.194;3.800;2024-03-08T15:36:26;12.70;99.90
22779;DHT22;11556;51.194;3.800;2024-03-08T15:38:54;12.80;99.90
22779;DHT22;11556;51.194;3.800;2024-03-08T15:41:20;12.60;99.90
22779;DHT22;11556;51.194;3.800;2024-03-08T15:43:46;12.50;99.90
22779;DHT22;11556;51.194;3.800;2024-03-08T15:46:12;12.40;99.90
22779;DHT22;11556;51.194;3.800;2024-03-08T15:48:39;12.60;99.90
22779;DHT22;11556;51.194;3.800;2024-03-08T15:51:08;12.60;99.90
22779;DHT22;11556;51.194;3.800;2024-03-08T15:53:37;12.60;99.90